createdAt,value
2019-03-18T00:00:09.863Z,72.10
2019-03-18T00:02:42.536Z,72.12
2019-03-18T00:05:13.547Z,72.23
2019-03-18T00:07:44.628Z,72.47
2019-03-18T00:10:15.644Z,72.41
2019-03-18T00:12:46.611Z,72.37
2019-03-18T00:15:17.700Z,72.32
2019-03-18T00:17:48.658Z,72.14
2019-03-18T00:20:19.832Z,72.12
2019-03-18T00:22:50.821Z,71.67
2019-03-18T00:25:22.691Z,71.63
2019-03-18T00:27:54.690Z,71.64
2019-03-18T00:30:25.315Z,71.57
2019-03-18T00:32:56.311Z,71.59
2019-03-18T00:35:27.235Z,71.17
2019-03-18T00:37:58.160Z,70.91
2019-03-18T00:40:29.099Z,71.09
2019-03-18T00:42:59.988Z,70.63
2019-03-18T00:45:30.925Z,70.43
2019-03-18T00:48:01.863Z,69.86
2019-03-18T00:50:32.807Z,69.90
2019-03-18T00:53:03.743Z,69.78
2019-03-18T00:55:35.714Z,69.49
2019-03-18T00:58:06.648Z,69.49
2019-03-18T01:00:37.585Z,69.33
2019-03-18T01:03:08.506Z,68.81
2019-03-18T01:05:39.469Z,68.73
2019-03-18T01:08:10.461Z,68.72
2019-03-18T01:10:41.457Z,68.75
2019-03-18T01:13:12.442Z,68.91
2019-03-18T01:15:43.515Z,68.83
2019-03-18T01:18:14.562Z,69.02
2019-03-18T01:20:45.580Z,68.95
2019-03-18T01:23:16.559Z,68.92
2019-03-18T01:25:48.341Z,68.72
2019-03-18T01:28:20.426Z,68.75
2019-03-18T01:30:52.515Z,68.75
2019-03-18T01:33:23.578Z,69.06
2019-03-18T01:35:54.527Z,69.19
2019-03-18T01:38:25.531Z,69.21
2019-03-18T01:40:56.490Z,69.21
2019-03-18T01:43:27.492Z,69.12
2019-03-18T01:45:58.442Z,69.37
2019-03-18T01:48:29.379Z,68.98
2019-03-18T01:51:00.319Z,68.93
2019-03-18T01:53:31.244Z,69.13
2019-03-18T01:56:02.200Z,69.24
2019-03-18T01:58:33.135Z,69.10
2019-03-18T02:01:04.076Z,68.92
2019-03-18T02:03:35.077Z,68.97
2019-03-18T02:06:06.090Z,68.93
2019-03-18T02:08:36.987Z,68.88
2019-03-18T02:11:07.939Z,69.22
2019-03-18T02:13:38.866Z,69.01
2019-03-18T02:16:09.927Z,69.15
2019-03-18T02:18:40.864Z,68.70
2019-03-18T02:21:11.845Z,69.20
2019-03-18T02:23:43.803Z,68.82
2019-03-18T02:26:15.708Z,68.91
2019-03-18T02:28:47.424Z,68.91
2019-03-18T02:31:19.586Z,68.78
2019-03-18T02:33:50.558Z,68.66
2019-03-18T02:36:21.554Z,68.73
2019-03-18T02:38:52.437Z,68.63
2019-03-18T02:41:23.429Z,68.44
2019-03-18T02:43:55.410Z,68.39
2019-03-18T02:46:26.366Z,68.30
2019-03-18T02:48:57.331Z,68.58
2019-03-18T02:51:28.274Z,68.62
2019-03-18T02:53:59.207Z,68.58
2019-03-18T02:56:30.169Z,68.40
2019-03-18T02:59:01.076Z,68.45
2019-03-18T03:01:32.280Z,68.45
2019-03-18T03:04:04.612Z,68.81
2019-03-18T03:06:35.875Z,68.91
2019-03-18T03:09:07.648Z,69.16
2019-03-18T03:11:38.704Z,69.33
2019-03-18T03:14:10.059Z,69.54
2019-03-18T03:16:41.416Z,69.20
2019-03-18T03:19:12.344Z,69.05
2019-03-18T03:21:43.405Z,69.07
2019-03-18T03:24:14.540Z,68.98
2019-03-18T03:26:47.328Z,69.10
2019-03-18T03:29:18.307Z,68.92
2019-03-18T03:31:49.387Z,69.05
2019-03-18T03:34:20.395Z,69.33
2019-03-18T03:36:51.514Z,69.55
2019-03-18T03:39:23.096Z,69.57
2019-03-18T03:41:54.161Z,69.51
2019-03-18T03:44:25.715Z,69.80
2019-03-18T03:46:56.793Z,69.76
2019-03-18T03:49:28.367Z,69.89
2019-03-18T03:52:00.007Z,69.96
2019-03-18T03:54:31.443Z,69.94
2019-03-18T03:57:02.897Z,69.95
2019-03-18T03:59:33.886Z,70.28
2019-03-18T04:02:04.834Z,70.48
2019-03-18T04:04:36.033Z,70.28
2019-03-18T04:07:07.049Z,70.41
2019-03-18T04:09:37.930Z,70.53
2019-03-18T04:12:08.944Z,70.13
2019-03-18T04:14:40.026Z,70.27
2019-03-18T04:17:10.963Z,70.42
2019-03-18T04:19:41.917Z,70.37
2019-03-18T04:22:12.874Z,70.39
2019-03-18T04:24:43.892Z,70.28
2019-03-18T04:27:15.805Z,70.43
2019-03-18T04:29:46.798Z,70.46
2019-03-18T04:32:17.796Z,70.54
2019-03-18T04:34:49.814Z,70.52
2019-03-18T04:37:20.771Z,70.67
2019-03-18T04:39:51.746Z,70.40
2019-03-18T04:42:22.768Z,70.12
2019-03-18T04:44:53.842Z,70.20
2019-03-18T04:47:24.825Z,70.02
2019-03-18T04:49:55.852Z,70.38
2019-03-18T04:52:26.810Z,70.52
2019-03-18T04:54:57.742Z,70.22
2019-03-18T04:57:28.664Z,69.91
2019-03-18T05:00:00.784Z,69.33
2019-03-18T05:02:31.831Z,69.33
2019-03-18T05:05:02.824Z,69.55
2019-03-18T05:07:33.766Z,68.98
2019-03-18T05:10:07.219Z,68.64
2019-03-18T05:12:37.626Z,68.70
2019-03-18T05:15:12.831Z,68.24
2019-03-18T05:17:45.409Z,67.93
2019-03-18T05:20:16.390Z,67.05
2019-03-18T05:22:47.338Z,67.06
2019-03-18T05:25:20.593Z,66.46
2019-03-18T05:27:52.460Z,66.16
2019-03-18T05:30:26.047Z,65.83
2019-03-18T05:32:57.091Z,65.82
2019-03-18T05:35:30.799Z,65.79
2019-03-18T05:38:01.728Z,65.42
2019-03-18T05:40:32.779Z,64.53
2019-03-18T05:43:07.562Z,64.69
2019-03-18T05:45:38.973Z,64.07
2019-03-18T05:48:12.927Z,64.31
2019-03-18T05:50:44.153Z,64.08
2019-03-18T05:53:16.713Z,64.12
2019-03-18T05:55:47.866Z,63.74
2019-03-18T05:58:18.955Z,63.71
2019-03-18T06:00:49.954Z,63.68
2019-03-18T06:06:31.270Z,63.50
2019-03-18T06:09:02.202Z,63.13
2019-03-18T06:11:33.574Z,62.63
2019-03-18T06:14:04.685Z,62.27
2019-03-18T06:16:35.691Z,62.23
2019-03-18T06:19:06.712Z,61.39
2019-03-18T06:21:37.673Z,59.50
2019-03-18T06:24:08.706Z,59.96
2019-03-18T06:26:39.669Z,59.89
2019-03-18T06:29:12.688Z,59.78
2019-03-18T06:31:43.641Z,59.66
2019-03-18T06:34:14.575Z,60.11
2019-03-18T06:36:45.617Z,59.90
2019-03-18T06:39:16.523Z,59.71
2019-03-18T06:41:47.488Z,59.63
2019-03-18T06:44:18.464Z,59.75
2019-03-18T06:46:49.393Z,59.18
2019-03-18T06:49:20.194Z,58.80
2019-03-18T06:51:51.174Z,59.07
2019-03-18T06:54:22.086Z,58.73
2019-03-18T06:56:53.186Z,58.24
2019-03-18T06:59:24.002Z,57.44
2019-03-18T07:01:54.829Z,56.88
2019-03-18T07:04:25.759Z,57.32
2019-03-18T07:06:56.620Z,57.14
2019-03-18T07:09:27.629Z,57.37
2019-03-18T07:11:58.591Z,56.85
2019-03-18T07:14:29.526Z,56.34
2019-03-18T07:17:00.487Z,56.44
2019-03-18T07:19:31.608Z,56.61
2019-03-18T07:22:02.613Z,56.05
2019-03-18T07:24:33.611Z,55.62
2019-03-18T07:27:04.597Z,55.73
2019-03-18T07:29:36.560Z,55.60
2019-03-18T07:32:07.806Z,55.66
2019-03-18T07:34:38.671Z,55.51
2019-03-18T07:37:09.716Z,55.13
2019-03-18T07:39:40.659Z,54.32
2019-03-18T07:42:11.572Z,54.37
2019-03-18T07:44:42.678Z,54.58
2019-03-18T07:47:13.656Z,54.04
2019-03-18T07:49:44.618Z,53.86
2019-03-18T07:52:16.552Z,53.73
2019-03-18T07:54:47.585Z,52.91
2019-03-18T07:57:18.684Z,53.11
2019-03-18T07:59:49.619Z,53.30
2019-03-18T08:02:20.576Z,53.04
2019-03-18T08:04:51.551Z,53.19
2019-03-18T08:07:22.691Z,52.99
2019-03-18T08:09:53.784Z,52.78
2019-03-18T08:12:24.845Z,52.53
2019-03-18T08:14:55.858Z,52.19
2019-03-18T08:17:26.794Z,51.80
2019-03-18T08:19:57.830Z,51.50
2019-03-18T08:22:28.955Z,51.68
2019-03-18T08:24:59.828Z,50.89
2019-03-18T08:27:30.785Z,50.49
2019-03-18T08:30:05.589Z,51.09
2019-03-18T08:32:36.584Z,51.13
2019-03-18T08:35:07.729Z,50.57
2019-03-18T08:37:38.871Z,50.34
2019-03-18T08:40:11.224Z,50.64
2019-03-18T08:42:42.185Z,50.05
2019-03-18T08:45:13.782Z,50.44
2019-03-18T08:47:44.819Z,50.37
2019-03-18T08:50:17.189Z,50.21
2019-03-18T08:52:48.117Z,50.13
2019-03-18T08:55:19.116Z,49.66
2019-03-18T08:57:50.154Z,49.93
2019-03-18T09:00:21.158Z,50.35
2019-03-18T09:02:56.190Z,49.77
2019-03-18T09:05:26.032Z,49.02
2019-03-18T09:07:57.012Z,48.84
2019-03-18T09:10:28.056Z,48.46
2019-03-18T09:12:59.423Z,48.55
2019-03-18T09:15:30.410Z,48.59
2019-03-18T09:18:01.436Z,49.06
2019-03-18T09:20:32.364Z,48.93
2019-03-18T09:23:03.405Z,49.16
2019-03-18T09:25:36.460Z,49.12
2019-03-18T09:28:07.456Z,48.39
2019-03-18T09:30:39.361Z,48.56
2019-03-18T09:33:10.340Z,48.57
2019-03-18T09:35:41.316Z,48.29
2019-03-18T09:38:12.317Z,48.56
2019-03-18T09:40:43.231Z,48.19
2019-03-18T09:43:15.864Z,48.18
2019-03-18T09:45:46.874Z,47.58
2019-03-18T09:48:17.917Z,47.41
2019-03-18T09:50:48.996Z,47.46
2019-03-18T09:53:20.124Z,46.97
2019-03-18T09:55:51.207Z,46.94
2019-03-18T09:58:22.436Z,47.07
2019-03-18T10:00:55.519Z,46.95
2019-03-18T10:03:26.154Z,46.17
2019-03-18T10:05:57.105Z,46.15
2019-03-18T10:08:29.151Z,46.12
2019-03-18T10:11:00.458Z,45.77
2019-03-18T10:13:31.403Z,46.18
2019-03-18T10:16:04.428Z,46.51
2019-03-18T10:18:35.404Z,46.81
2019-03-18T10:21:06.528Z,46.38
2019-03-18T10:23:37.648Z,46.38
2019-03-18T10:26:08.589Z,46.41
2019-03-18T10:28:39.644Z,46.37
2019-03-18T10:31:11.557Z,46.02
2019-03-18T10:33:44.854Z,45.76
2019-03-18T10:36:17.601Z,45.58
2019-03-18T10:38:48.672Z,45.76
2019-03-18T10:41:19.633Z,45.78
2019-03-18T10:43:50.695Z,45.65
2019-03-18T10:46:21.670Z,45.66
2019-03-18T10:48:52.627Z,44.95
2019-03-18T10:51:24.648Z,44.85
2019-03-18T10:53:55.670Z,44.76
2019-03-18T10:56:26.631Z,44.77
2019-03-18T10:58:57.643Z,44.51
2019-03-18T11:01:28.604Z,44.53
2019-03-18T11:03:59.697Z,44.50
2019-03-18T11:06:30.589Z,44.19
2019-03-18T11:09:01.559Z,44.16
2019-03-18T11:11:33.984Z,44.11
2019-03-18T11:14:06.073Z,44.14
2019-03-18T11:16:37.058Z,44.13
2019-03-18T11:19:08.120Z,43.86
2019-03-18T11:21:41.223Z,43.79
2019-03-18T11:24:12.273Z,43.99
2019-03-18T11:26:44.295Z,43.76
2019-03-18T11:29:15.322Z,43.56
2019-03-18T11:31:47.179Z,43.35
2019-03-18T11:34:18.332Z,43.01
2019-03-18T11:36:49.320Z,42.82
2019-03-18T11:39:20.336Z,43.10
2019-03-18T11:41:51.274Z,43.25
2019-03-18T11:44:22.250Z,43.31
2019-03-18T11:46:53.380Z,42.95
2019-03-18T11:49:24.300Z,42.65
2019-03-18T11:51:55.475Z,42.38
2019-03-18T11:54:26.438Z,42.20
2019-03-18T11:56:57.442Z,42.55
2019-03-18T11:59:28.489Z,42.45
2019-03-18T12:01:59.378Z,42.16
2019-03-18T12:04:32.738Z,42.08
2019-03-18T12:07:03.146Z,42.05
2019-03-18T12:09:34.272Z,41.82
2019-03-18T12:12:05.267Z,41.66
2019-03-18T12:14:36.585Z,42.01
2019-03-18T12:17:07.564Z,41.75
2019-03-18T12:19:38.696Z,41.70
2019-03-18T12:22:09.691Z,41.72
2019-03-18T12:24:40.642Z,41.53
2019-03-18T12:27:11.637Z,41.61
2019-03-18T12:29:42.649Z,41.85
2019-03-18T12:32:14.466Z,41.71
2019-03-18T12:34:45.480Z,41.57
2019-03-18T12:37:16.322Z,41.47
2019-03-18T12:39:47.503Z,41.39
2019-03-18T12:42:18.431Z,41.45
2019-03-18T12:44:49.381Z,41.48
2019-03-18T12:47:20.392Z,41.36
2019-03-18T12:49:51.405Z,41.50
2019-03-18T12:52:22.384Z,41.61
2019-03-18T12:54:53.440Z,41.56
2019-03-18T12:57:24.574Z,41.69
2019-03-18T12:59:55.531Z,41.66
2019-03-18T13:02:26.563Z,41.71
2019-03-18T13:04:57.545Z,41.57
2019-03-18T13:07:28.585Z,41.33
2019-03-18T13:09:59.439Z,41.46
2019-03-18T13:12:30.353Z,41.54
2019-03-18T13:15:01.348Z,41.72
2019-03-18T13:17:32.329Z,41.89
2019-03-18T13:20:03.494Z,41.84
2019-03-18T13:22:34.514Z,41.92
2019-03-18T13:25:08.154Z,42.03
2019-03-18T13:27:38.471Z,42.17
2019-03-18T13:30:18.600Z,42.12
2019-03-18T13:32:50.422Z,42.23
2019-03-18T13:35:24.402Z,42.44
2019-03-18T13:37:55.356Z,42.57
2019-03-18T13:40:26.428Z,42.58
2019-03-18T13:42:57.348Z,42.74
2019-03-18T13:45:28.300Z,42.56
2019-03-18T13:47:59.338Z,42.57
2019-03-18T13:50:30.291Z,42.57
2019-03-18T13:53:01.199Z,42.57
2019-03-18T13:55:32.219Z,42.41
2019-03-18T13:58:03.240Z,42.54
2019-03-18T14:00:34.307Z,42.68
2019-03-18T14:03:05.199Z,42.84
2019-03-18T14:05:36.254Z,43.01
2019-03-18T14:08:07.193Z,43.14
2019-03-18T14:10:38.262Z,43.27
2019-03-18T14:13:09.351Z,43.32
2019-03-18T14:15:40.489Z,43.39
2019-03-18T14:18:11.526Z,43.48
2019-03-18T14:20:42.552Z,43.60
2019-03-18T14:23:13.576Z,43.78
2019-03-18T14:25:45.659Z,43.85
2019-03-18T14:28:16.842Z,44.03
2019-03-18T14:30:47.842Z,44.20
2019-03-18T14:33:19.744Z,44.30
2019-03-18T14:35:50.767Z,44.24
2019-03-18T14:38:22.833Z,44.54
2019-03-18T14:40:54.113Z,44.71
2019-03-18T14:43:25.148Z,44.88
2019-03-18T14:45:56.298Z,45.24
2019-03-18T14:48:27.229Z,45.17
2019-03-18T14:50:58.401Z,45.38
2019-03-18T14:53:29.628Z,45.57
2019-03-18T14:56:00.736Z,45.77
2019-03-18T14:58:31.756Z,46.01
2019-03-18T15:01:02.834Z,46.29
2019-03-18T15:03:33.753Z,46.43
2019-03-18T15:06:04.844Z,46.64
2019-03-18T15:08:35.836Z,46.89
2019-03-18T15:11:06.845Z,47.03
2019-03-18T15:13:37.781Z,47.42
2019-03-18T15:16:08.742Z,47.50
2019-03-18T15:18:39.687Z,47.43
2019-03-18T15:21:10.659Z,47.91
2019-03-18T15:23:41.603Z,47.90
2019-03-18T15:26:12.643Z,48.22
2019-03-18T15:28:43.580Z,48.41
2019-03-18T15:31:14.701Z,48.55
2019-03-18T15:33:46.474Z,48.74
2019-03-18T15:36:17.436Z,48.89
2019-03-18T15:38:48.381Z,49.06
2019-03-18T15:41:19.651Z,49.31
2019-03-18T15:43:50.568Z,49.55
2019-03-18T15:46:21.831Z,49.66
2019-03-18T15:48:53.123Z,49.71
2019-03-18T15:51:24.381Z,49.69
2019-03-18T15:53:55.483Z,49.72
2019-03-18T15:56:26.795Z,49.79
2019-03-18T15:58:57.822Z,49.81
2019-03-18T16:01:28.951Z,50.12
2019-03-18T16:04:00.061Z,50.18
2019-03-18T16:06:31.350Z,50.13
2019-03-18T16:09:02.351Z,50.35
2019-03-18T16:11:33.411Z,50.37
2019-03-18T16:14:04.423Z,50.70
2019-03-18T16:16:36.505Z,50.35
2019-03-18T16:19:07.629Z,50.43
2019-03-18T16:21:38.596Z,50.39
2019-03-18T16:24:09.544Z,50.31
2019-03-18T16:26:40.642Z,50.31
2019-03-18T16:31:41.423Z,50.29
2019-03-18T16:34:13.262Z,50.32
2019-03-18T16:36:44.231Z,50.48
2019-03-18T16:39:15.158Z,50.51
2019-03-18T16:41:46.179Z,50.60
2019-03-18T16:44:17.189Z,50.55
2019-03-18T16:46:48.308Z,50.57
2019-03-18T16:49:19.283Z,50.76
2019-03-18T16:51:50.326Z,50.99
2019-03-18T16:54:21.479Z,51.19
2019-03-18T16:56:52.519Z,51.17
2019-03-18T16:59:23.582Z,51.19
2019-03-18T17:01:54.620Z,51.10
2019-03-18T17:04:25.616Z,50.87
2019-03-18T17:06:58.140Z,51.18
2019-03-18T17:09:29.836Z,50.96
2019-03-18T17:12:00.941Z,51.15
2019-03-18T17:14:32.025Z,51.31
2019-03-18T17:17:02.997Z,52.64
2019-03-18T17:19:33.999Z,51.41
2019-03-18T17:22:05.032Z,51.31
2019-03-18T17:24:35.996Z,51.24
2019-03-18T17:27:06.992Z,51.26
2019-03-18T17:29:37.950Z,51.30
2019-03-18T17:32:08.911Z,51.42
2019-03-18T17:34:40.842Z,51.43
2019-03-18T17:37:11.916Z,51.45
2019-03-18T17:39:42.964Z,51.52
2019-03-18T17:42:13.964Z,51.58
2019-03-18T17:44:44.948Z,51.59
2019-03-18T17:47:15.911Z,51.59
2019-03-18T17:49:46.916Z,51.70
2019-03-18T17:52:18.028Z,51.58
2019-03-18T17:54:49.045Z,52.03
2019-03-18T17:57:20.092Z,51.88
2019-03-18T17:59:51.225Z,51.40
2019-03-18T18:02:22.222Z,51.62
2019-03-18T18:05:02.421Z,51.61
2019-03-18T18:07:26.050Z,50.78
2019-03-18T18:09:57.002Z,51.61
2019-03-18T18:12:28.161Z,51.30
2019-03-18T18:14:59.210Z,51.28
2019-03-18T18:17:30.194Z,51.10
2019-03-18T18:20:01.179Z,50.78
2019-03-18T18:22:32.240Z,50.68
2019-03-18T18:25:03.429Z,50.14
2019-03-18T18:27:34.513Z,49.99
2019-03-18T18:30:13.977Z,49.62
2019-03-18T18:32:45.034Z,49.89
2019-03-18T18:35:16.971Z,50.24
2019-03-18T18:37:47.987Z,50.40
2019-03-18T18:40:31.834Z,50.42
2019-03-18T18:43:02.206Z,50.48
2019-03-18T18:48:02.849Z,49.77
2019-03-18T18:50:33.776Z,48.97
2019-03-18T18:53:04.867Z,48.77
2019-03-18T18:55:35.841Z,48.65
2019-03-18T18:58:07.081Z,48.50
2019-03-18T19:00:38.006Z,48.30
2019-03-18T19:03:09.046Z,48.43
2019-03-18T19:05:40.088Z,48.56
2019-03-18T19:08:11.081Z,48.36
2019-03-18T19:10:42.124Z,48.33
2019-03-18T19:13:13.068Z,48.59
2019-03-18T19:15:44.310Z,48.55
2019-03-18T19:18:15.348Z,48.64
2019-03-18T19:20:46.265Z,48.48
2019-03-18T19:23:17.242Z,48.71
2019-03-18T19:25:48.275Z,48.81
2019-03-18T19:28:19.362Z,49.03
2019-03-18T19:30:50.293Z,49.03
2019-03-18T19:33:21.374Z,48.98
2019-03-18T19:35:53.372Z,48.91
2019-03-18T19:38:24.352Z,49.13
2019-03-18T19:40:55.298Z,49.04
2019-03-18T19:43:26.860Z,49.17
2019-03-18T19:45:58.442Z,49.42
2019-03-18T19:48:29.839Z,49.30
2019-03-18T19:51:00.962Z,49.44
2019-03-18T19:53:33.129Z,49.30
2019-03-18T19:56:04.116Z,49.67
2019-03-18T19:58:35.225Z,49.52
2019-03-18T20:01:06.218Z,49.47
2019-03-18T20:03:37.882Z,49.44
2019-03-18T20:06:12.820Z,49.44
2019-03-18T20:08:44.028Z,49.62
2019-03-18T20:11:15.036Z,49.71
2019-03-18T20:13:46.118Z,49.50
2019-03-18T20:16:17.116Z,49.48
2019-03-18T20:18:50.084Z,49.72
2019-03-18T20:21:22.651Z,49.74
2019-03-18T20:24:00.660Z,50.00
2019-03-18T20:26:26.518Z,50.02
2019-03-18T20:28:57.407Z,50.08
2019-03-18T20:31:29.277Z,50.31
2019-03-18T20:34:00.345Z,50.46
2019-03-18T20:36:32.281Z,50.40
2019-03-18T20:39:04.225Z,50.49
2019-03-18T20:41:35.326Z,50.59
2019-03-18T20:44:06.399Z,50.58
2019-03-18T20:46:39.968Z,50.76
2019-03-18T20:49:11.018Z,50.79
2019-03-18T20:51:42.434Z,50.85
2019-03-18T20:54:13.614Z,50.98
2019-03-18T20:56:46.792Z,50.87
2019-03-18T20:59:17.738Z,51.02
2019-03-18T21:01:48.872Z,51.07
2019-03-18T21:04:20.873Z,51.29
2019-03-18T21:06:51.904Z,51.43
2019-03-18T21:09:25.879Z,51.54
2019-03-18T21:11:57.932Z,51.62
2019-03-18T21:14:29.636Z,51.66
2019-03-18T21:17:00.734Z,51.65
2019-03-18T21:19:35.592Z,51.74
2019-03-18T21:22:07.009Z,51.89
2019-03-18T21:24:38.138Z,52.21
2019-03-18T21:27:09.223Z,52.17
2019-03-18T21:29:40.554Z,52.29
2019-03-18T21:32:18.718Z,52.23
2019-03-18T21:34:49.900Z,52.28
2019-03-18T21:37:21.739Z,52.49
2019-03-18T21:39:52.830Z,52.63
2019-03-18T21:42:23.969Z,52.66
2019-03-18T21:44:55.212Z,52.76
2019-03-18T21:47:27.024Z,52.91
2019-03-18T21:49:58.056Z,52.92
2019-03-18T21:52:28.951Z,53.01
2019-03-18T21:55:00.118Z,53.06
2019-03-18T21:57:32.092Z,53.09
2019-03-18T22:00:04.816Z,53.10
2019-03-18T22:02:35.967Z,53.35
2019-03-18T22:05:07.161Z,53.36
2019-03-18T22:07:38.271Z,53.57
2019-03-18T22:10:13.604Z,53.64
2019-03-18T22:12:44.512Z,53.52
2019-03-18T22:15:22.215Z,54.16
2019-03-18T22:17:53.166Z,53.77
2019-03-18T22:20:24.180Z,53.84
2019-03-18T22:22:55.126Z,53.74
2019-03-18T22:25:26.195Z,53.93
2019-03-18T22:27:57.099Z,53.98
2019-03-18T22:30:28.028Z,53.82
2019-03-18T22:32:58.934Z,53.96
2019-03-18T22:35:29.887Z,53.99
2019-03-18T22:38:03.372Z,53.77
2019-03-18T22:40:34.331Z,53.71
2019-03-18T22:43:05.369Z,53.72
2019-03-18T22:45:36.385Z,53.51
2019-03-18T22:48:07.319Z,53.57
2019-03-18T22:50:38.354Z,53.54
2019-03-18T22:53:09.212Z,53.53
2019-03-18T22:55:42.506Z,53.49
2019-03-18T22:58:13.439Z,53.53
2019-03-18T23:00:48.745Z,53.55
2019-03-18T23:03:23.112Z,53.56
2019-03-18T23:05:54.409Z,53.45
2019-03-18T23:08:26.893Z,53.31
2019-03-18T23:11:03.603Z,53.34
2019-03-18T23:13:35.689Z,53.40
2019-03-18T23:16:08.749Z,53.50
2019-03-18T23:18:41.271Z,53.41
2019-03-18T23:21:12.151Z,53.46
2019-03-18T23:23:43.177Z,53.56
2019-03-18T23:26:14.233Z,53.42
2019-03-18T23:28:45.049Z,53.43
2019-03-18T23:31:15.943Z,53.29
2019-03-18T23:33:46.847Z,53.29
2019-03-18T23:36:20.555Z,53.29
2019-03-18T23:38:52.193Z,53.30
2019-03-18T23:41:23.098Z,53.26
2019-03-18T23:43:53.974Z,53.10
2019-03-18T23:46:24.929Z,53.01
2019-03-18T23:48:55.712Z,53.18
2019-03-18T23:51:26.562Z,53.29
2019-03-18T23:53:58.491Z,53.39
2019-03-18T23:56:29.387Z,53.26
2019-03-18T23:59:00.266Z,53.29
